Novo Airao, Brazil
Current Conditions -  °F | °C
As of 12:00 AM on Friday 31 Oct 2014 (Local Time) from SBEG Reporting Station
Clear Clear  
Wind Chill: 82°   Ceiling: Unl
Heat Index: 87°   Visibility: 6mi
Dew Point: 72°   Wind: 7mph
Humidity: 70%   Direction: 80°E
Pressure: 29.77"   Gusts: NA
Location:  2.63°S, 60.95°W
Report Text: SBEG 310400Z 08006KT CAVOK 28/22 Q1008
Loading
Personal Weather Stations






























Interactive Weather Map
Tropical Storm Tracking
New forecast layout! Learn more

10-Day Weather Forecast

Advertisements
Track Severe Weather on mobile